Terminal Aerodrome Forecast
Issued by NWS

Home | Current Version | Previous Version | Text Only | Print | Product List | Glossary On
Versions: 1 2 3 4 5 6 7 8 9 10 11 12 13 14 15 16 17 18 19
000
FTUS45 KABQ 041910 AAB
TAFSAF
TAF AMD
KSAF 041910Z 0419/0518 24007KT P6SM VCSH SCT070 SCT140
      TEMPO 0419/0423 VRB20G32KT 3SM TSRA OVC040CB
     FM042300 34007KT P6SM VCSH BKN070
      TEMPO 0423/0503 VRB18G30KT 5SM TSRA OVC045CB
     FM050600 35007KT P6SM SCT050 BKN110=

USA.gov is the U.S. government's official web portal to all federal, state and local government web resources and services.